sensor_id;sensor_type;location;lat;lon;timestamp;P1;durP1;ratioP1;P2;durP2;ratioP2
36355;SDS011;22384;54.302;18.596;2023-04-22T00:01:22;18.60;;;8.18;;
36355;SDS011;22384;54.302;18.596;2023-04-22T00:03:48;19.70;;;6.97;;
36355;SDS011;22384;54.302;18.596;2023-04-22T00:06:15;17.85;;;7.82;;
36355;SDS011;22384;54.302;18.596;2023-04-22T00:08:41;19.00;;;7.65;;
36355;SDS011;22384;54.302;18.596;2023-04-22T00:11:07;14.18;;;5.85;;
36355;SDS011;22384;54.302;18.596;2023-04-22T00:13:33;13.75;;;6.10;;
36355;SDS011;22384;54.302;18.596;2023-04-22T00:15:59;12.18;;;6.07;;
36355;SDS011;22384;54.302;18.596;2023-04-22T00:18:25;17.73;;;7.25;;
36355;SDS011;22384;54.302;18.596;2023-04-22T00:20:51;18.38;;;7.25;;
36355;SDS011;22384;54.302;18.596;2023-04-22T00:23:17;19.40;;;7.53;;
36355;SDS011;22384;54.302;18.596;2023-04-22T00:25:43;18.77;;;8.10;;
36355;SDS011;22384;54.302;18.596;2023-04-22T00:28:09;22.45;;;7.90;;
36355;SDS011;22384;54.302;18.596;2023-04-22T00:30:35;20.38;;;7.78;;
36355;SDS011;22384;54.302;18.596;2023-04-22T00:33:01;16.77;;;6.78;;
36355;SDS011;22384;54.302;18.596;2023-04-22T00:35:27;15.50;;;6.60;;
36355;SDS011;22384;54.302;18.596;2023-04-22T00:37:53;16.15;;;6.93;;
36355;SDS011;22384;54.302;18.596;2023-04-22T00:40:19;17.40;;;6.72;;
36355;SDS011;22384;54.302;18.596;2023-04-22T00:42:46;15.88;;;6.57;;
36355;SDS011;22384;54.302;18.596;2023-04-22T00:45:14;15.85;;;6.28;;
36355;SDS011;22384;54.302;18.596;2023-04-22T00:47:44;12.57;;;6.32;;
36355;SDS011;22384;54.302;18.596;2023-04-22T00:50:10;17.83;;;7.45;;
36355;SDS011;22384;54.302;18.596;2023-04-22T00:52:36;14.60;;;6.25;;
36355;SDS011;22384;54.302;18.596;2023-04-22T00:55:02;20.23;;;7.90;;
36355;SDS011;22384;54.302;18.596;2023-04-22T00:57:29;18.23;;;8.30;;
36355;SDS011;22384;54.302;18.596;2023-04-22T00:59:55;18.58;;;7.25;;
36355;SDS011;22384;54.302;18.596;2023-04-22T01:02:21;17.65;;;7.38;;
36355;SDS011;22384;54.302;18.596;2023-04-22T01:04:48;13.90;;;6.00;;
36355;SDS011;22384;54.302;18.596;2023-04-22T01:07:14;18.23;;;7.20;;
36355;SDS011;22384;54.302;18.596;2023-04-22T01:09:40;14.88;;;6.47;;
36355;SDS011;22384;54.302;18.596;2023-04-22T01:12:06;19.42;;;7.78;;
36355;SDS011;22384;54.302;18.596;2023-04-22T01:14:33;13.85;;;6.13;;
36355;SDS011;22384;54.302;18.596;2023-04-22T01:16:59;15.98;;;6.68;;
36355;SDS011;22384;54.302;18.596;2023-04-22T01:19:27;17.98;;;6.78;;
36355;SDS011;22384;54.302;18.596;2023-04-22T01:21:53;12.60;;;6.00;;
36355;SDS011;22384;54.302;18.596;2023-04-22T01:24:20;15.05;;;6.25;;
36355;SDS011;22384;54.302;18.596;2023-04-22T01:26:47;13.60;;;7.07;;
36355;SDS011;22384;54.302;18.596;2023-04-22T01:29:13;15.63;;;7.38;;
36355;SDS011;22384;54.302;18.596;2023-04-22T01:31:39;19.58;;;7.15;;
36355;SDS011;22384;54.302;18.596;2023-04-22T01:34:05;16.38;;;6.95;;
36355;SDS011;22384;54.302;18.596;2023-04-22T01:36:32;13.35;;;6.95;;
36355;SDS011;22384;54.302;18.596;2023-04-22T01:38:58;19.40;;;7.55;;
36355;SDS011;22384;54.302;18.596;2023-04-22T01:41:24;18.20;;;7.32;;
36355;SDS011;22384;54.302;18.596;2023-04-22T01:43:54;15.50;;;7.00;;
36355;SDS011;22384;54.302;18.596;2023-04-22T01:46:22;22.63;;;8.13;;
36355;SDS011;22384;54.302;18.596;2023-04-22T01:48:48;14.13;;;7.43;;
36355;SDS011;22384;54.302;18.596;2023-04-22T01:51:18;16.40;;;6.97;;
36355;SDS011;22384;54.302;18.596;2023-04-22T01:53:45;16.58;;;8.05;;
36355;SDS011;22384;54.302;18.596;2023-04-22T01:56:11;19.08;;;8.20;;
36355;SDS011;22384;54.302;18.596;2023-04-22T01:58:38;20.58;;;8.00;;
36355;SDS011;22384;54.302;18.596;2023-04-22T02:01:04;18.45;;;8.32;;
36355;SDS011;22384;54.302;18.596;2023-04-22T02:03:30;17.67;;;7.82;;
36355;SDS011;22384;54.302;18.596;2023-04-22T02:05:56;17.52;;;7.57;;
36355;SDS011;22384;54.302;18.596;2023-04-22T02:08:22;19.63;;;8.52;;
36355;SDS011;22384;54.302;18.596;2023-04-22T02:10:48;18.75;;;8.57;;
36355;SDS011;22384;54.302;18.596;2023-04-22T02:13:14;17.33;;;8.57;;
36355;SDS011;22384;54.302;18.596;2023-04-22T02:15:40;19.90;;;9.02;;
36355;SDS011;22384;54.302;18.596;2023-04-22T02:18:06;15.20;;;8.32;;
36355;SDS011;22384;54.302;18.596;2023-04-22T02:20:34;18.17;;;7.57;;
36355;SDS011;22384;54.302;18.596;2023-04-22T02:23:00;27.23;;;8.50;;
36355;SDS011;22384;54.302;18.596;2023-04-22T02:25:27;18.08;;;8.52;;
36355;SDS011;22384;54.302;18.596;2023-04-22T02:27:53;20.58;;;8.20;;
36355;SDS011;22384;54.302;18.596;2023-04-22T02:30:19;19.90;;;8.73;;
36355;SDS011;22384;54.302;18.596;2023-04-22T02:32:45;18.38;;;7.55;;
36355;SDS011;22384;54.302;18.596;2023-04-22T02:35:11;19.50;;;8.70;;
36355;SDS011;22384;54.302;18.596;2023-04-22T02:37:37;20.65;;;8.48;;
36355;SDS011;22384;54.302;18.596;2023-04-22T02:40:03;16.90;;;8.77;;
36355;SDS011;22384;54.302;18.596;2023-04-22T02:42:29;25.42;;;9.27;;
36355;SDS011;22384;54.302;18.596;2023-04-22T02:44:55;24.48;;;8.45;;
36355;SDS011;22384;54.302;18.596;2023-04-22T02:47:22;20.38;;;8.27;;
36355;SDS011;22384;54.302;18.596;2023-04-22T02:49:48;19.50;;;8.10;;
36355;SDS011;22384;54.302;18.596;2023-04-22T02:52:14;17.80;;;7.93;;
36355;SDS011;22384;54.302;18.596;2023-04-22T02:54:40;17.50;;;7.68;;
36355;SDS011;22384;54.302;18.596;2023-04-22T02:57:06;18.88;;;8.20;;
36355;SDS011;22384;54.302;18.596;2023-04-22T02:59:33;15.75;;;7.22;;
36355;SDS011;22384;54.302;18.596;2023-04-22T03:02:01;15.43;;;7.43;;
36355;SDS011;22384;54.302;18.596;2023-04-22T03:04:27;18.85;;;7.70;;
36355;SDS011;22384;54.302;18.596;2023-04-22T03:06:53;14.18;;;7.32;;
36355;SDS011;22384;54.302;18.596;2023-04-22T03:09:20;16.42;;;6.70;;
36355;SDS011;22384;54.302;18.596;2023-04-22T03:11:46;20.42;;;7.00;;
36355;SDS011;22384;54.302;18.596;2023-04-22T03:14:12;14.60;;;6.85;;
36355;SDS011;22384;54.302;18.596;2023-04-22T03:16:38;18.55;;;7.18;;
36355;SDS011;22384;54.302;18.596;2023-04-22T03:19:04;21.58;;;7.65;;
36355;SDS011;22384;54.302;18.596;2023-04-22T03:21:30;20.52;;;8.40;;
36355;SDS011;22384;54.302;18.596;2023-04-22T03:23:56;19.80;;;7.20;;
36355;SDS011;22384;54.302;18.596;2023-04-22T03:26:22;19.40;;;6.78;;
36355;SDS011;22384;54.302;18.596;2023-04-22T03:28:48;18.65;;;7.38;;
36355;SDS011;22384;54.302;18.596;2023-04-22T03:31:14;13.85;;;6.15;;
36355;SDS011;22384;54.302;18.596;2023-04-22T03:33:40;16.98;;;6.95;;
36355;SDS011;22384;54.302;18.596;2023-04-22T03:36:06;18.92;;;6.20;;
36355;SDS011;22384;54.302;18.596;2023-04-22T03:38:32;19.52;;;6.35;;
36355;SDS011;22384;54.302;18.596;2023-04-22T03:40:58;11.30;;;5.53;;
36355;SDS011;22384;54.302;18.596;2023-04-22T03:43:24;16.73;;;5.72;;
36355;SDS011;22384;54.302;18.596;2023-04-22T03:45:50;13.88;;;5.40;;
36355;SDS011;22384;54.302;18.596;2023-04-22T03:48:16;16.20;;;6.03;;
36355;SDS011;22384;54.302;18.596;2023-04-22T03:50:42;17.20;;;6.03;;
36355;SDS011;22384;54.302;18.596;2023-04-22T03:53:08;14.98;;;6.15;;
36355;SDS011;22384;54.302;18.596;2023-04-22T03:55:35;12.88;;;5.00;;
36355;SDS011;22384;54.302;18.596;2023-04-22T03:58:01;15.20;;;5.55;;
36355;SDS011;22384;54.302;18.596;2023-04-22T04:00:27;19.33;;;5.18;;
36355;SDS011;22384;54.302;18.596;2023-04-22T04:02:53;14.18;;;5.60;;
36355;SDS011;22384;54.302;18.596;2023-04-22T04:05:19;17.65;;;6.18;;
36355;SDS011;22384;54.302;18.596;2023-04-22T04:07:45;10.27;;;5.72;;
36355;SDS011;22384;54.302;18.596;2023-04-22T04:10:11;12.00;;;5.93;;
36355;SDS011;22384;54.302;18.596;2023-04-22T04:12:37;12.40;;;5.47;;
36355;SDS011;22384;54.302;18.596;2023-04-22T04:15:03;16.13;;;6.38;;
36355;SDS011;22384;54.302;18.596;2023-04-22T04:17:30;13.48;;;5.93;;
36355;SDS011;22384;54.302;18.596;2023-04-22T04:19:56;16.00;;;5.45;;
36355;SDS011;22384;54.302;18.596;2023-04-22T04:22:22;19.00;;;6.85;;
36355;SDS011;22384;54.302;18.596;2023-04-22T04:24:48;18.27;;;6.47;;
36355;SDS011;22384;54.302;18.596;2023-04-22T04:27:14;16.55;;;7.13;;
36355;SDS011;22384;54.302;18.596;2023-04-22T04:29:40;16.63;;;6.03;;
36355;SDS011;22384;54.302;18.596;2023-04-22T04:32:07;20.05;;;7.43;;
36355;SDS011;22384;54.302;18.596;2023-04-22T04:34:33;15.95;;;6.85;;
36355;SDS011;22384;54.302;18.596;2023-04-22T04:37:01;17.08;;;6.28;;
36355;SDS011;22384;54.302;18.596;2023-04-22T04:39:27;12.98;;;5.78;;
36355;SDS011;22384;54.302;18.596;2023-04-22T04:41:53;18.70;;;7.68;;
36355;SDS011;22384;54.302;18.596;2023-04-22T04:44:22;17.38;;;6.13;;
36355;SDS011;22384;54.302;18.596;2023-04-22T04:46:50;20.00;;;7.07;;
36355;SDS011;22384;54.302;18.596;2023-04-22T04:49:16;19.45;;;5.65;;
36355;SDS011;22384;54.302;18.596;2023-04-22T04:51:42;14.05;;;4.97;;
36355;SDS011;22384;54.302;18.596;2023-04-22T04:54:08;15.13;;;5.85;;
36355;SDS011;22384;54.302;18.596;2023-04-22T04:56:34;16.10;;;5.50;;
36355;SDS011;22384;54.302;18.596;2023-04-22T04:59:00;11.82;;;5.65;;
36355;SDS011;22384;54.302;18.596;2023-04-22T05:01:26;13.60;;;5.40;;
36355;SDS011;22384;54.302;18.596;2023-04-22T05:03:52;13.32;;;5.97;;
36355;SDS011;22384;54.302;18.596;2023-04-22T05:06:18;13.50;;;5.30;;
36355;SDS011;22384;54.302;18.596;2023-04-22T05:08:44;9.70;;;4.15;;
36355;SDS011;22384;54.302;18.596;2023-04-22T05:11:10;12.55;;;4.93;;
36355;SDS011;22384;54.302;18.596;2023-04-22T05:13:36;11.32;;;4.05;;
36355;SDS011;22384;54.302;18.596;2023-04-22T05:16:02;11.63;;;4.25;;
36355;SDS011;22384;54.302;18.596;2023-04-22T05:18:28;6.57;;;3.33;;
36355;SDS011;22384;54.302;18.596;2023-04-22T05:20:54;12.15;;;3.88;;
36355;SDS011;22384;54.302;18.596;2023-04-22T05:23:23;11.63;;;3.65;;
36355;SDS011;22384;54.302;18.596;2023-04-22T05:25:49;11.27;;;3.38;;
36355;SDS011;22384;54.302;18.596;2023-04-22T05:28:15;7.63;;;3.35;;
36355;SDS011;22384;54.302;18.596;2023-04-22T05:30:41;12.20;;;3.00;;
36355;SDS011;22384;54.302;18.596;2023-04-22T05:33:07;7.78;;;2.90;;
36355;SDS011;22384;54.302;18.596;2023-04-22T05:35:34;10.82;;;3.25;;
36355;SDS011;22384;54.302;18.596;2023-04-22T05:38:00;8.48;;;3.25;;
36355;SDS011;22384;54.302;18.596;2023-04-22T05:40:27;9.20;;;2.97;;
36355;SDS011;22384;54.302;18.596;2023-04-22T05:42:53;7.45;;;3.20;;
36355;SDS011;22384;54.302;18.596;2023-04-22T05:45:19;6.32;;;2.67;;
36355;SDS011;22384;54.302;18.596;2023-04-22T05:47:45;7.80;;;3.15;;
36355;SDS011;22384;54.302;18.596;2023-04-22T05:50:11;6.18;;;2.78;;
36355;SDS011;22384;54.302;18.596;2023-04-22T05:52:37;7.35;;;2.83;;
36355;SDS011;22384;54.302;18.596;2023-04-22T05:55:03;5.38;;;2.17;;
36355;SDS011;22384;54.302;18.596;2023-04-22T05:57:30;4.85;;;2.53;;
36355;SDS011;22384;54.302;18.596;2023-04-22T05:59:56;7.35;;;2.80;;
36355;SDS011;22384;54.302;18.596;2023-04-22T06:02:22;5.30;;;2.63;;
36355;SDS011;22384;54.302;18.596;2023-04-22T06:04:48;6.65;;;2.42;;
36355;SDS011;22384;54.302;18.596;2023-04-22T06:07:14;7.15;;;2.40;;
36355;SDS011;22384;54.302;18.596;2023-04-22T06:09:40;7.63;;;2.85;;
36355;SDS011;22384;54.302;18.596;2023-04-22T06:12:06;8.23;;;3.10;;
36355;SDS011;22384;54.302;18.596;2023-04-22T06:14:32;10.35;;;3.30;;
36355;SDS011;22384;54.302;18.596;2023-04-22T06:16:58;8.60;;;2.72;;
36355;SDS011;22384;54.302;18.596;2023-04-22T06:19:24;10.07;;;4.20;;
36355;SDS011;22384;54.302;18.596;2023-04-22T06:21:50;6.30;;;2.80;;
36355;SDS011;22384;54.302;18.596;2023-04-22T06:24:16;9.75;;;2.78;;
36355;SDS011;22384;54.302;18.596;2023-04-22T06:26:42;7.43;;;3.83;;
36355;SDS011;22384;54.302;18.596;2023-04-22T06:29:08;9.43;;;3.40;;
36355;SDS011;22384;54.302;18.596;2023-04-22T06:31:34;9.57;;;3.42;;
36355;SDS011;22384;54.302;18.596;2023-04-22T06:34:01;8.68;;;3.83;;
36355;SDS011;22384;54.302;18.596;2023-04-22T06:36:27;9.38;;;3.72;;
36355;SDS011;22384;54.302;18.596;2023-04-22T06:38:53;15.10;;;4.03;;
36355;SDS011;22384;54.302;18.596;2023-04-22T06:41:20;16.10;;;4.75;;
36355;SDS011;22384;54.302;18.596;2023-04-22T06:43:46;7.25;;;3.08;;
36355;SDS011;22384;54.302;18.596;2023-04-22T06:46:14;15.50;;;3.00;;
36355;SDS011;22384;54.302;18.596;2023-04-22T06:48:40;4.80;;;2.20;;
36355;SDS011;22384;54.302;18.596;2023-04-22T06:51:06;12.02;;;2.53;;
36355;SDS011;22384;54.302;18.596;2023-04-22T06:53:32;4.88;;;2.63;;
36355;SDS011;22384;54.302;18.596;2023-04-22T06:55:58;8.35;;;2.55;;
36355;SDS011;22384;54.302;18.596;2023-04-22T06:58:24;4.57;;;2.20;;
36355;SDS011;22384;54.302;18.596;2023-04-22T07:00:50;6.30;;;2.63;;
36355;SDS011;22384;54.302;18.596;2023-04-22T07:03:16;8.95;;;2.20;;
36355;SDS011;22384;54.302;18.596;2023-04-22T07:05:42;5.22;;;2.15;;
36355;SDS011;22384;54.302;18.596;2023-04-22T07:08:08;5.65;;;1.92;;
36355;SDS011;22384;54.302;18.596;2023-04-22T07:10:35;1.73;;;1.08;;
36355;SDS011;22384;54.302;18.596;2023-04-22T07:13:01;1.80;;;1.23;;
36355;SDS011;22384;54.302;18.596;2023-04-22T07:15:27;4.90;;;1.42;;
36355;SDS011;22384;54.302;18.596;2023-04-22T07:17:53;2.40;;;1.17;;
36355;SDS011;22384;54.302;18.596;2023-04-22T07:20:19;2.83;;;1.50;;
36355;SDS011;22384;54.302;18.596;2023-04-22T07:22:46;3.05;;;1.50;;
36355;SDS011;22384;54.302;18.596;2023-04-22T07:25:12;2.22;;;1.40;;
36355;SDS011;22384;54.302;18.596;2023-04-22T07:27:38;1.92;;;1.05;;
36355;SDS011;22384;54.302;18.596;2023-04-22T07:30:04;4.00;;;1.52;;
36355;SDS011;22384;54.302;18.596;2023-04-22T07:32:31;2.42;;;1.30;;
36355;SDS011;22384;54.302;18.596;2023-04-22T07:34:57;2.65;;;0.90;;
36355;SDS011;22384;54.302;18.596;2023-04-22T07:37:23;4.47;;;0.90;;
36355;SDS011;22384;54.302;18.596;2023-04-22T07:39:49;1.33;;;0.70;;
36355;SDS011;22384;54.302;18.596;2023-04-22T07:42:15;1.90;;;1.00;;
36355;SDS011;22384;54.302;18.596;2023-04-22T07:44:41;1.15;;;0.60;;
36355;SDS011;22384;54.302;18.596;2023-04-22T07:47:07;1.38;;;0.88;;
36355;SDS011;22384;54.302;18.596;2023-04-22T07:49:34;2.50;;;0.57;;
36355;SDS011;22384;54.302;18.596;2023-04-22T07:52:00;2.50;;;0.75;;
36355;SDS011;22384;54.302;18.596;2023-04-22T07:54:26;4.40;;;0.90;;
36355;SDS011;22384;54.302;18.596;2023-04-22T07:56:52;4.20;;;1.30;;
36355;SDS011;22384;54.302;18.596;2023-04-22T07:59:18;2.60;;;0.60;;
36355;SDS011;22384;54.302;18.596;2023-04-22T08:01:44;1.40;;;0.82;;
36355;SDS011;22384;54.302;18.596;2023-04-22T08:04:10;1.60;;;0.63;;
36355;SDS011;22384;54.302;18.596;2023-04-22T08:06:36;1.83;;;1.00;;
36355;SDS011;22384;54.302;18.596;2023-04-22T08:09:02;3.50;;;1.10;;
36355;SDS011;22384;54.302;18.596;2023-04-22T08:11:28;2.30;;;0.60;;
36355;SDS011;22384;54.302;18.596;2023-04-22T08:13:54;3.88;;;1.20;;
36355;SDS011;22384;54.302;18.596;2023-04-22T08:16:21;5.18;;;0.93;;
36355;SDS011;22384;54.302;18.596;2023-04-22T08:18:47;2.45;;;1.10;;
36355;SDS011;22384;54.302;18.596;2023-04-22T08:21:13;3.13;;;0.70;;
36355;SDS011;22384;54.302;18.596;2023-04-22T08:23:39;1.63;;;0.80;;
36355;SDS011;22384;54.302;18.596;2023-04-22T08:26:05;1.75;;;0.82;;
36355;SDS011;22384;54.302;18.596;2023-04-22T08:28:32;5.43;;;1.20;;
36355;SDS011;22384;54.302;18.596;2023-04-22T08:30:58;6.82;;;1.00;;
36355;SDS011;22384;54.302;18.596;2023-04-22T08:33:24;5.00;;;1.00;;
36355;SDS011;22384;54.302;18.596;2023-04-22T08:35:50;9.88;;;1.20;;
36355;SDS011;22384;54.302;18.596;2023-04-22T08:38:17;2.30;;;0.90;;
36355;SDS011;22384;54.302;18.596;2023-04-22T08:40:43;1.50;;;0.70;;
36355;SDS011;22384;54.302;18.596;2023-04-22T08:43:09;1.10;;;0.70;;
36355;SDS011;22384;54.302;18.596;2023-04-22T08:45:36;1.08;;;0.95;;
36355;SDS011;22384;54.302;18.596;2023-04-22T08:48:04;4.07;;;1.10;;
36355;SDS011;22384;54.302;18.596;2023-04-22T08:50:31;3.80;;;0.80;;
36355;SDS011;22384;54.302;18.596;2023-04-22T08:52:57;2.58;;;0.50;;
36355;SDS011;22384;54.302;18.596;2023-04-22T08:55:24;3.38;;;0.45;;
36355;SDS011;22384;54.302;18.596;2023-04-22T08:57:50;0.60;;;0.60;;
36355;SDS011;22384;54.302;18.596;2023-04-22T09:00:16;3.75;;;1.20;;
36355;SDS011;22384;54.302;18.596;2023-04-22T09:02:43;6.97;;;1.10;;
36355;SDS011;22384;54.302;18.596;2023-04-22T09:05:09;2.75;;;1.40;;
36355;SDS011;22384;54.302;18.596;2023-04-22T09:07:37;13.82;;;1.80;;
36355;SDS011;22384;54.302;18.596;2023-04-22T09:10:05;4.13;;;1.45;;
36355;SDS011;22384;54.302;18.596;2023-04-22T09:12:32;2.80;;;0.80;;
36355;SDS011;22384;54.302;18.596;2023-04-22T09:14:58;3.15;;;1.15;;
36355;SDS011;22384;54.302;18.596;2023-04-22T09:17:30;6.32;;;1.30;;
36355;SDS011;22384;54.302;18.596;2023-04-22T09:19:57;7.32;;;1.63;;
36355;SDS011;22384;54.302;18.596;2023-04-22T09:22:25;4.30;;;1.30;;
36355;SDS011;22384;54.302;18.596;2023-04-22T09:24:51;4.40;;;1.38;;
36355;SDS011;22384;54.302;18.596;2023-04-22T09:27:17;8.57;;;1.30;;
36355;SDS011;22384;54.302;18.596;2023-04-22T09:29:47;12.80;;;1.63;;
36355;SDS011;22384;54.302;18.596;2023-04-22T09:32:17;4.32;;;0.90;;
36355;SDS011;22384;54.302;18.596;2023-04-22T09:34:52;6.93;;;1.15;;
36355;SDS011;22384;54.302;18.596;2023-04-22T09:37:23;7.32;;;1.10;;
36355;SDS011;22384;54.302;18.596;2023-04-22T09:39:50;6.63;;;1.48;;
36355;SDS011;22384;54.302;18.596;2023-04-22T09:42:16;3.83;;;1.10;;
36355;SDS011;22384;54.302;18.596;2023-04-22T09:44:46;9.45;;;1.75;;
36355;SDS011;22384;54.302;18.596;2023-04-22T09:47:13;5.38;;;1.10;;
36355;SDS011;22384;54.302;18.596;2023-04-22T09:49:39;4.00;;;1.38;;
36355;SDS011;22384;54.302;18.596;2023-04-22T09:52:05;2.08;;;1.00;;
36355;SDS011;22384;54.302;18.596;2023-04-22T09:54:32;6.10;;;1.10;;
36355;SDS011;22384;54.302;18.596;2023-04-22T09:56:58;4.47;;;1.30;;
36355;SDS011;22384;54.302;18.596;2023-04-22T09:59:25;8.38;;;1.45;;
36355;SDS011;22384;54.302;18.596;2023-04-22T10:01:53;8.57;;;1.30;;
36355;SDS011;22384;54.302;18.596;2023-04-22T10:04:20;2.45;;;1.13;;
36355;SDS011;22384;54.302;18.596;2023-04-22T10:06:47;4.10;;;1.40;;
36355;SDS011;22384;54.302;18.596;2023-04-22T10:09:14;4.38;;;1.48;;
36355;SDS011;22384;54.302;18.596;2023-04-22T10:11:42;1.40;;;1.10;;
36355;SDS011;22384;54.302;18.596;2023-04-22T10:14:08;5.38;;;1.35;;
36355;SDS011;22384;54.302;18.596;2023-04-22T10:16:35;2.67;;;0.90;;
36355;SDS011;22384;54.302;18.596;2023-04-22T10:19:03;3.15;;;0.82;;
36355;SDS011;22384;54.302;18.596;2023-04-22T10:21:30;4.60;;;1.08;;
36355;SDS011;22384;54.302;18.596;2023-04-22T10:23:57;2.95;;;1.25;;
36355;SDS011;22384;54.302;18.596;2023-04-22T10:26:40;3.15;;;0.90;;
36355;SDS011;22384;54.302;18.596;2023-04-22T10:29:06;2.97;;;0.88;;
36355;SDS011;22384;54.302;18.596;2023-04-22T10:31:36;3.78;;;1.30;;
36355;SDS011;22384;54.302;18.596;2023-04-22T10:34:12;2.63;;;0.90;;
36355;SDS011;22384;54.302;18.596;2023-04-22T10:36:52;4.18;;;0.90;;
36355;SDS011;22384;54.302;18.596;2023-04-22T10:39:18;3.90;;;1.13;;
36355;SDS011;22384;54.302;18.596;2023-04-22T10:41:49;5.88;;;1.25;;
36355;SDS011;22384;54.302;18.596;2023-04-22T10:44:15;2.73;;;1.10;;
36355;SDS011;22384;54.302;18.596;2023-04-22T10:49:20;3.78;;;0.90;;
36355;SDS011;22384;54.302;18.596;2023-04-22T10:51:48;2.80;;;1.30;;
36355;SDS011;22384;54.302;18.596;2023-04-22T10:59:27;1.90;;;1.20;;
36355;SDS011;22384;54.302;18.596;2023-04-22T11:01:53;13.43;;;1.33;;
36355;SDS011;22384;54.302;18.596;2023-04-22T11:04:20;1.55;;;1.08;;
36355;SDS011;22384;54.302;18.596;2023-04-22T11:09:31;5.10;;;1.40;;
36355;SDS011;22384;54.302;18.596;2023-04-22T11:14:42;2.22;;;1.00;;
36355;SDS011;22384;54.302;18.596;2023-04-22T11:17:08;3.80;;;1.30;;
36355;SDS011;22384;54.302;18.596;2023-04-22T11:19:35;2.58;;;1.17;;
36355;SDS011;22384;54.302;18.596;2023-04-22T11:22:01;6.40;;;1.13;;
36355;SDS011;22384;54.302;18.596;2023-04-22T11:24:27;2.35;;;1.13;;
36355;SDS011;22384;54.302;18.596;2023-04-22T11:26:54;1.98;;;1.10;;
36355;SDS011;22384;54.302;18.596;2023-04-22T11:29:21;3.47;;;1.50;;
36355;SDS011;22384;54.302;18.596;2023-04-22T11:31:47;1.48;;;0.90;;
36355;SDS011;22384;54.302;18.596;2023-04-22T11:34:13;3.33;;;1.42;;
36355;SDS011;22384;54.302;18.596;2023-04-22T11:36:44;5.97;;;1.20;;
36355;SDS011;22384;54.302;18.596;2023-04-22T11:39:10;8.00;;;1.17;;
36355;SDS011;22384;54.302;18.596;2023-04-22T11:41:42;1.48;;;0.70;;
36355;SDS011;22384;54.302;18.596;2023-04-22T11:44:08;1.38;;;0.90;;
36355;SDS011;22384;54.302;18.596;2023-04-22T11:46:34;5.68;;;1.20;;
36355;SDS011;22384;54.302;18.596;2023-04-22T11:49:10;4.97;;;1.05;;
36355;SDS011;22384;54.302;18.596;2023-04-22T11:51:36;2.25;;;0.90;;
36355;SDS011;22384;54.302;18.596;2023-04-22T11:54:02;0.80;;;0.80;;
36355;SDS011;22384;54.302;18.596;2023-04-22T11:56:28;0.80;;;0.80;;
36355;SDS011;22384;54.302;18.596;2023-04-22T11:58:54;1.40;;;0.82;;
36355;SDS011;22384;54.302;18.596;2023-04-22T12:01:20;2.33;;;0.90;;
36355;SDS011;22384;54.302;18.596;2023-04-22T12:03:47;1.77;;;1.00;;
36355;SDS011;22384;54.302;18.596;2023-04-22T12:06:15;7.10;;;1.30;;
36355;SDS011;22384;54.302;18.596;2023-04-22T12:08:41;1.50;;;1.05;;
36355;SDS011;22384;54.302;18.596;2023-04-22T12:11:09;2.78;;;1.10;;
36355;SDS011;22384;54.302;18.596;2023-04-22T12:16:01;3.17;;;1.08;;
36355;SDS011;22384;54.302;18.596;2023-04-22T12:18:35;5.05;;;1.08;;
36355;SDS011;22384;54.302;18.596;2023-04-22T12:24:08;6.82;;;1.52;;
36355;SDS011;22384;54.302;18.596;2023-04-22T12:26:35;3.08;;;0.98;;
36355;SDS011;22384;54.302;18.596;2023-04-22T12:29:04;3.10;;;1.30;;
36355;SDS011;22384;54.302;18.596;2023-04-22T12:31:30;2.35;;;1.13;;
36355;SDS011;22384;54.302;18.596;2023-04-22T12:33:56;5.47;;;1.60;;
36355;SDS011;22384;54.302;18.596;2023-04-22T12:36:23;3.08;;;1.10;;
36355;SDS011;22384;54.302;18.596;2023-04-22T12:38:50;4.35;;;1.48;;
36355;SDS011;22384;54.302;18.596;2023-04-22T12:41:16;4.57;;;1.10;;
36355;SDS011;22384;54.302;18.596;2023-04-22T12:43:42;1.60;;;1.10;;
36355;SDS011;22384;54.302;18.596;2023-04-22T12:46:08;2.70;;;1.10;;
36355;SDS011;22384;54.302;18.596;2023-04-22T12:48:35;3.20;;;1.20;;
36355;SDS011;22384;54.302;18.596;2023-04-22T12:51:01;3.17;;;1.15;;
36355;SDS011;22384;54.302;18.596;2023-04-22T12:53:27;6.05;;;1.25;;
36355;SDS011;22384;54.302;18.596;2023-04-22T12:55:54;1.52;;;1.10;;
36355;SDS011;22384;54.302;18.596;2023-04-22T12:58:20;3.33;;;1.10;;
36355;SDS011;22384;54.302;18.596;2023-04-22T13:00:46;5.82;;;1.13;;
36355;SDS011;22384;54.302;18.596;2023-04-22T13:03:12;5.90;;;1.10;;
36355;SDS011;22384;54.302;18.596;2023-04-22T13:05:38;3.63;;;1.02;;
36355;SDS011;22384;54.302;18.596;2023-04-22T13:08:04;2.95;;;1.05;;
36355;SDS011;22384;54.302;18.596;2023-04-22T13:10:30;4.97;;;1.40;;
36355;SDS011;22384;54.302;18.596;2023-04-22T13:12:56;3.95;;;1.10;;
36355;SDS011;22384;54.302;18.596;2023-04-22T13:15:22;3.33;;;1.50;;
36355;SDS011;22384;54.302;18.596;2023-04-22T13:17:50;8.23;;;1.50;;
36355;SDS011;22384;54.302;18.596;2023-04-22T13:20:17;5.30;;;1.50;;
36355;SDS011;22384;54.302;18.596;2023-04-22T13:22:43;1.83;;;1.20;;
36355;SDS011;22384;54.302;18.596;2023-04-22T13:25:11;9.20;;;1.35;;
36355;SDS011;22384;54.302;18.596;2023-04-22T13:27:37;3.08;;;1.10;;
36355;SDS011;22384;54.302;18.596;2023-04-22T13:30:03;2.80;;;1.33;;
36355;SDS011;22384;54.302;18.596;2023-04-22T13:32:30;1.15;;;0.88;;
36355;SDS011;22384;54.302;18.596;2023-04-22T13:34:56;2.65;;;1.35;;
36355;SDS011;22384;54.302;18.596;2023-04-22T13:37:22;5.68;;;1.40;;
36355;SDS011;22384;54.302;18.596;2023-04-22T13:39:48;4.90;;;1.52;;
36355;SDS011;22384;54.302;18.596;2023-04-22T13:42:14;2.17;;;1.08;;
36355;SDS011;22384;54.302;18.596;2023-04-22T13:44:40;4.22;;;1.10;;
36355;SDS011;22384;54.302;18.596;2023-04-22T13:47:06;4.20;;;1.23;;
36355;SDS011;22384;54.302;18.596;2023-04-22T13:49:32;4.25;;;1.00;;
36355;SDS011;22384;54.302;18.596;2023-04-22T13:51:58;10.68;;;2.45;;
36355;SDS011;22384;54.302;18.596;2023-04-22T13:54:25;7.07;;;1.83;;
36355;SDS011;22384;54.302;18.596;2023-04-22T13:56:52;4.63;;;1.60;;
36355;SDS011;22384;54.302;18.596;2023-04-22T13:59:18;4.13;;;1.52;;
36355;SDS011;22384;54.302;18.596;2023-04-22T14:01:44;3.40;;;1.00;;
36355;SDS011;22384;54.302;18.596;2023-04-22T14:04:10;4.72;;;1.10;;
36355;SDS011;22384;54.302;18.596;2023-04-22T14:06:36;2.92;;;1.50;;
36355;SDS011;22384;54.302;18.596;2023-04-22T14:09:03;6.22;;;1.33;;
36355;SDS011;22384;54.302;18.596;2023-04-22T14:11:29;8.60;;;2.00;;
36355;SDS011;22384;54.302;18.596;2023-04-22T14:13:55;1.98;;;1.10;;
36355;SDS011;22384;54.302;18.596;2023-04-22T14:16:21;2.80;;;1.23;;
36355;SDS011;22384;54.302;18.596;2023-04-22T14:18:47;4.93;;;1.40;;
36355;SDS011;22384;54.302;18.596;2023-04-22T14:21:13;2.95;;;1.17;;
36355;SDS011;22384;54.302;18.596;2023-04-22T14:23:40;1.67;;;1.08;;
36355;SDS011;22384;54.302;18.596;2023-04-22T14:26:07;1.17;;;1.00;;
36355;SDS011;22384;54.302;18.596;2023-04-22T14:28:33;3.20;;;1.27;;
36355;SDS011;22384;54.302;18.596;2023-04-22T14:30:59;3.65;;;1.17;;
36355;SDS011;22384;54.302;18.596;2023-04-22T14:33:26;2.67;;;1.35;;
36355;SDS011;22384;54.302;18.596;2023-04-22T14:35:52;1.58;;;1.23;;
36355;SDS011;22384;54.302;18.596;2023-04-22T14:38:18;2.95;;;1.60;;
36355;SDS011;22384;54.302;18.596;2023-04-22T14:40:45;2.38;;;1.52;;
36355;SDS011;22384;54.302;18.596;2023-04-22T14:43:11;5.10;;;2.20;;